Santa Monica, CA

12:40 PM PST on February 06, 2016 (GMT -0800)
Santa Monica Municipal | | Change Station
CLOSE
Current Station
Airport
Location: Santa Monica,
Elevation: 174 ft
Nearby Weather Stations
Active Advisory: Wind Advisory Active Notice: Public Information Statement

Elev 174 ft 34.02 °N, 118.45 °W | Updated 49 minutes ago

Clear
Clear
75 °F
Feels Like 75 °F
N
6
Wind Variable Wind from SW

Today
High -- | Low -- °F
--% Chance of Precip.
Yesterday
High -- | Low -- °F
Precip. -- in
Pressure 30.24 in
Visibility 10.0 miles
Clouds Clear
Dew Point 25 °F
Humidity 16%
Rainfall 0.00 in
Snow Depth Not available.
6:47 AM 5:28 PM
Waning Crescent, 4% visible
METAR KSMO 061951Z 22005KT 10SM CLR 24/M04 A3024 RMK AO2 SLP238 T02391039 $
Pressure 30.24 in
Visibility 10.0 miles
Clouds Clear
Dew Point 25 °F
Humidity 16%
Rainfall 0.00 in
Snow Depth Not available.
6:47 AM 5:28 PM
Waning Crescent, 4% visible
METAR KSMO 061951Z 22005KT 10SM CLR 24/M04 A3024 RMK AO2 SLP238 T02391039 $

10-Day Weather Forecast

Almanac

Astronomy

Feb. 06, 2016 Rise Set
Actual Time
Civil Twilight
Nautical Twilight
Astronomical Twilight
Moon
Length of Visible Light
Length of Day
Tomorrow will be .
, % of the Moon is Illuminated

Today's Extremes

State Highs State Lows

Community

WunderPhotos

Upload Photos

1,891,046 photos uploaded!

WunderBlog® & News

Nearby

Air Quality

  Air Quality AQ Index Pollutant
Not available.

Snow Depth

Station Depth Elevation

Earthquake Activity

City Distance Mag. Time & Date
Minimum magnitude displayed is 2.5.

Coastal Water Temperatures

Place Temperature

Stations

Nearby Weather Stations

Station Location Temp. Windchill Dew Point Humidity Wind Precip. Elev Updated Type
                   

Watches & Warnings

Wind Advisory
Issued: 3:02 AM PST Feb. 6, 2016 – National Weather Service

... Wind Advisory remains in effect until 2 PM PST this
afternoon...

* winds... areas of north to northeast 15 to 25 mph with local
gusts to 35 mph are expected below passes and canyons from
Malibu to the Hollywood Hills.

* Impacts... gusty winds will make driving difficult... especially
for drivers of high profile vehicles.

Precautionary/preparedness actions...

When driving... use extra caution. Be prepared for sudden gusty
cross winds.



Asr